sensor_id;sensor_type;location;lat;lon;timestamp;P1;durP1;ratioP1;P2;durP2;ratioP2
3278;SDS011;1651;50.940;6.888;2022-12-20T00:01:21;2.40;;;2.20;;
3278;SDS011;1651;50.940;6.888;2022-12-20T00:03:48;2.97;;;1.90;;
3278;SDS011;1651;50.940;6.888;2022-12-20T00:06:15;2.30;;;1.90;;
3278;SDS011;1651;50.940;6.888;2022-12-20T00:08:41;2.40;;;1.90;;
3278;SDS011;1651;50.940;6.888;2022-12-20T00:11:07;3.50;;;2.07;;
3278;SDS011;1651;50.940;6.888;2022-12-20T00:13:34;2.20;;;2.00;;
3278;SDS011;1651;50.940;6.888;2022-12-20T00:18:30;2.77;;;2.27;;
3278;SDS011;1651;50.940;6.888;2022-12-20T00:20:59;2.70;;;1.80;;
3278;SDS011;1651;50.940;6.888;2022-12-20T00:23:25;2.20;;;2.00;;
3278;SDS011;1651;50.940;6.888;2022-12-20T00:25:58;5.03;;;2.50;;
3278;SDS011;1651;50.940;6.888;2022-12-20T00:28:24;1.40;;;1.30;;
3278;SDS011;1651;50.940;6.888;2022-12-20T00:30:54;5.77;;;3.00;;
3278;SDS011;1651;50.940;6.888;2022-12-20T00:33:20;2.40;;;2.00;;
3278;SDS011;1651;50.940;6.888;2022-12-20T00:35:46;3.97;;;2.30;;
3278;SDS011;1651;50.940;6.888;2022-12-20T00:38:12;4.70;;;2.70;;
3278;SDS011;1651;50.940;6.888;2022-12-20T00:40:38;6.53;;;3.10;;
3278;SDS011;1651;50.940;6.888;2022-12-20T00:43:04;2.73;;;2.53;;
3278;SDS011;1651;50.940;6.888;2022-12-20T00:45:30;2.90;;;1.90;;
3278;SDS011;1651;50.940;6.888;2022-12-20T00:47:57;2.43;;;2.23;;
3278;SDS011;1651;50.940;6.888;2022-12-20T00:50:23;3.43;;;3.07;;
3278;SDS011;1651;50.940;6.888;2022-12-20T00:52:49;3.28;;;2.65;;
3278;SDS011;1651;50.940;6.888;2022-12-20T00:55:15;3.73;;;2.43;;
3278;SDS011;1651;50.940;6.888;2022-12-20T00:57:41;3.13;;;2.93;;
3278;SDS011;1651;50.940;6.888;2022-12-20T01:00:07;3.37;;;2.77;;
3278;SDS011;1651;50.940;6.888;2022-12-20T01:02:33;3.70;;;2.70;;
3278;SDS011;1651;50.940;6.888;2022-12-20T01:04:59;7.33;;;3.07;;
3278;SDS011;1651;50.940;6.888;2022-12-20T01:07:25;5.50;;;4.33;;
3278;SDS011;1651;50.940;6.888;2022-12-20T01:09:51;5.57;;;3.10;;
3278;SDS011;1651;50.940;6.888;2022-12-20T01:12:17;4.67;;;3.43;;
3278;SDS011;1651;50.940;6.888;2022-12-20T01:14:43;4.90;;;3.30;;
3278;SDS011;1651;50.940;6.888;2022-12-20T01:17:09;5.00;;;3.17;;
3278;SDS011;1651;50.940;6.888;2022-12-20T01:19:35;3.47;;;3.13;;
3278;SDS011;1651;50.940;6.888;2022-12-20T01:22:01;3.77;;;3.47;;
3278;SDS011;1651;50.940;6.888;2022-12-20T01:24:27;5.23;;;3.20;;
3278;SDS011;1651;50.940;6.888;2022-12-20T01:26:53;5.50;;;2.80;;
3278;SDS011;1651;50.940;6.888;2022-12-20T01:29:19;4.03;;;3.33;;
3278;SDS011;1651;50.940;6.888;2022-12-20T01:31:47;5.50;;;2.90;;
3278;SDS011;1651;50.940;6.888;2022-12-20T01:34:13;4.20;;;2.70;;
3278;SDS011;1651;50.940;6.888;2022-12-20T01:36:39;3.80;;;3.00;;
3278;SDS011;1651;50.940;6.888;2022-12-20T01:41:32;4.13;;;3.30;;
3278;SDS011;1651;50.940;6.888;2022-12-20T01:44:00;3.40;;;3.07;;
3278;SDS011;1651;50.940;6.888;2022-12-20T01:46:27;3.63;;;2.83;;
3278;SDS011;1651;50.940;6.888;2022-12-20T01:51:19;4.70;;;3.00;;
3278;SDS011;1651;50.940;6.888;2022-12-20T01:53:46;3.13;;;2.83;;
3278;SDS011;1651;50.940;6.888;2022-12-20T01:56:13;3.83;;;3.27;;
3278;SDS011;1651;50.940;6.888;2022-12-20T01:58:39;3.37;;;3.07;;
3278;SDS011;1651;50.940;6.888;2022-12-20T02:01:06;3.10;;;2.77;;
3278;SDS011;1651;50.940;6.888;2022-12-20T02:03:32;3.27;;;2.97;;
3278;SDS011;1651;50.940;6.888;2022-12-20T02:06:05;4.00;;;3.00;;
3278;SDS011;1651;50.940;6.888;2022-12-20T02:08:34;3.80;;;3.40;;
3278;SDS011;1651;50.940;6.888;2022-12-20T02:13:47;4.03;;;3.40;;
3278;SDS011;1651;50.940;6.888;2022-12-20T02:16:18;8.63;;;4.57;;
3278;SDS011;1651;50.940;6.888;2022-12-20T02:18:59;4.57;;;3.63;;
3278;SDS011;1651;50.940;6.888;2022-12-20T02:21:31;4.17;;;3.77;;
3278;SDS011;1651;50.940;6.888;2022-12-20T02:24:04;10.10;;;4.00;;
3278;SDS011;1651;50.940;6.888;2022-12-20T02:34:30;5.60;;;3.70;;
3278;SDS011;1651;50.940;6.888;2022-12-20T02:36:58;8.50;;;3.90;;
3278;SDS011;1651;50.940;6.888;2022-12-20T02:39:24;3.80;;;3.33;;
3278;SDS011;1651;50.940;6.888;2022-12-20T02:41:52;7.47;;;3.33;;
3278;SDS011;1651;50.940;6.888;2022-12-20T02:44:20;6.23;;;3.53;;
3278;SDS011;1651;50.940;6.888;2022-12-20T02:47:08;6.27;;;3.57;;
3278;SDS011;1651;50.940;6.888;2022-12-20T02:49:36;4.03;;;3.65;;
3278;SDS011;1651;50.940;6.888;2022-12-20T02:52:05;6.90;;;3.50;;
3278;SDS011;1651;50.940;6.888;2022-12-20T02:54:32;3.35;;;3.05;;
3278;SDS011;1651;50.940;6.888;2022-12-20T02:59:42;3.70;;;3.30;;
3278;SDS011;1651;50.940;6.888;2022-12-20T03:02:10;3.27;;;2.97;;
3278;SDS011;1651;50.940;6.888;2022-12-20T03:04:37;4.77;;;3.27;;
3278;SDS011;1651;50.940;6.888;2022-12-20T03:07:08;5.53;;;3.60;;
3278;SDS011;1651;50.940;6.888;2022-12-20T03:09:36;9.80;;;3.50;;
3278;SDS011;1651;50.940;6.888;2022-12-20T03:12:02;3.10;;;2.80;;
3278;SDS011;1651;50.940;6.888;2022-12-20T03:14:28;3.05;;;2.75;;
3278;SDS011;1651;50.940;6.888;2022-12-20T03:16:54;6.40;;;3.50;;
3278;SDS011;1651;50.940;6.888;2022-12-20T03:19:21;5.90;;;3.30;;
3278;SDS011;1651;50.940;6.888;2022-12-20T03:21:47;3.78;;;2.90;;
3278;SDS011;1651;50.940;6.888;2022-12-20T03:24:14;6.17;;;3.70;;
3278;SDS011;1651;50.940;6.888;2022-12-20T03:26:40;8.38;;;3.72;;
3278;SDS011;1651;50.940;6.888;2022-12-20T03:29:06;3.45;;;3.15;;
3278;SDS011;1651;50.940;6.888;2022-12-20T03:31:33;4.70;;;3.30;;
3278;SDS011;1651;50.940;6.888;2022-12-20T03:34:02;6.78;;;3.40;;
3278;SDS011;1651;50.940;6.888;2022-12-20T03:36:28;5.33;;;3.80;;
3278;SDS011;1651;50.940;6.888;2022-12-20T03:38:55;6.30;;;3.30;;
3278;SDS011;1651;50.940;6.888;2022-12-20T03:41:21;4.70;;;3.97;;
3278;SDS011;1651;50.940;6.888;2022-12-20T03:43:47;4.50;;;3.38;;
3278;SDS011;1651;50.940;6.888;2022-12-20T03:48:43;7.47;;;4.30;;
3278;SDS011;1651;50.940;6.888;2022-12-20T03:51:09;3.60;;;3.30;;
3278;SDS011;1651;50.940;6.888;2022-12-20T03:53:35;4.63;;;3.37;;
3278;SDS011;1651;50.940;6.888;2022-12-20T03:56:01;4.03;;;3.20;;
3278;SDS011;1651;50.940;6.888;2022-12-20T03:58:27;4.60;;;3.70;;
3278;SDS011;1651;50.940;6.888;2022-12-20T04:00:55;3.83;;;3.40;;
3278;SDS011;1651;50.940;6.888;2022-12-20T04:03:21;4.47;;;3.60;;
3278;SDS011;1651;50.940;6.888;2022-12-20T04:05:47;5.70;;;3.40;;
3278;SDS011;1651;50.940;6.888;2022-12-20T04:08:13;6.03;;;3.60;;
3278;SDS011;1651;50.940;6.888;2022-12-20T04:10:39;5.27;;;3.80;;
3278;SDS011;1651;50.940;6.888;2022-12-20T04:13:23;5.10;;;3.03;;
3278;SDS011;1651;50.940;6.888;2022-12-20T04:15:49;4.70;;;4.00;;
3278;SDS011;1651;50.940;6.888;2022-12-20T04:18:15;5.70;;;3.67;;
3278;SDS011;1651;50.940;6.888;2022-12-20T04:20:41;6.37;;;3.50;;
3278;SDS011;1651;50.940;6.888;2022-12-20T04:23:07;4.20;;;3.60;;
3278;SDS011;1651;50.940;6.888;2022-12-20T04:25:33;4.17;;;3.53;;
3278;SDS011;1651;50.940;6.888;2022-12-20T04:28:00;6.80;;;4.17;;
3278;SDS011;1651;50.940;6.888;2022-12-20T04:30:26;4.05;;;3.50;;
3278;SDS011;1651;50.940;6.888;2022-12-20T04:32:52;4.60;;;3.67;;
3278;SDS011;1651;50.940;6.888;2022-12-20T04:35:18;6.55;;;3.90;;
3278;SDS011;1651;50.940;6.888;2022-12-20T04:37:44;4.40;;;3.85;;
3278;SDS011;1651;50.940;6.888;2022-12-20T04:40:11;5.35;;;4.00;;
3278;SDS011;1651;50.940;6.888;2022-12-20T04:42:37;4.18;;;3.70;;
3278;SDS011;1651;50.940;6.888;2022-12-20T04:45:04;18.00;;;6.83;;
3278;SDS011;1651;50.940;6.888;2022-12-20T04:47:30;7.20;;;5.07;;
3278;SDS011;1651;50.940;6.888;2022-12-20T04:49:56;7.03;;;4.60;;
3278;SDS011;1651;50.940;6.888;2022-12-20T04:52:22;4.90;;;4.10;;
3278;SDS011;1651;50.940;6.888;2022-12-20T04:55:07;5.25;;;4.20;;
3278;SDS011;1651;50.940;6.888;2022-12-20T04:57:33;8.13;;;4.40;;
3278;SDS011;1651;50.940;6.888;2022-12-20T04:59:59;6.77;;;3.93;;
3278;SDS011;1651;50.940;6.888;2022-12-20T05:02:25;10.60;;;5.10;;
3278;SDS011;1651;50.940;6.888;2022-12-20T05:04:51;5.93;;;4.33;;
3278;SDS011;1651;50.940;6.888;2022-12-20T05:07:17;7.27;;;4.40;;
3278;SDS011;1651;50.940;6.888;2022-12-20T05:09:43;6.50;;;4.77;;
3278;SDS011;1651;50.940;6.888;2022-12-20T05:12:09;8.40;;;5.10;;
3278;SDS011;1651;50.940;6.888;2022-12-20T05:14:36;4.10;;;3.70;;
3278;SDS011;1651;50.940;6.888;2022-12-20T05:17:03;6.87;;;3.73;;
3278;SDS011;1651;50.940;6.888;2022-12-20T05:19:29;4.07;;;3.67;;
3278;SDS011;1651;50.940;6.888;2022-12-20T05:21:56;5.87;;;4.30;;
3278;SDS011;1651;50.940;6.888;2022-12-20T05:24:40;4.32;;;3.92;;
3278;SDS011;1651;50.940;6.888;2022-12-20T05:27:25;4.60;;;3.60;;
3278;SDS011;1651;50.940;6.888;2022-12-20T05:29:51;5.83;;;3.63;;
3278;SDS011;1651;50.940;6.888;2022-12-20T05:32:17;5.80;;;4.53;;
3278;SDS011;1651;50.940;6.888;2022-12-20T05:34:43;5.67;;;4.13;;
3278;SDS011;1651;50.940;6.888;2022-12-20T05:37:09;7.03;;;4.00;;
3278;SDS011;1651;50.940;6.888;2022-12-20T05:39:36;5.93;;;3.90;;
3278;SDS011;1651;50.940;6.888;2022-12-20T05:42:02;8.55;;;4.10;;
3278;SDS011;1651;50.940;6.888;2022-12-20T05:44:28;6.22;;;3.75;;
3278;SDS011;1651;50.940;6.888;2022-12-20T05:46:54;5.05;;;4.15;;
3278;SDS011;1651;50.940;6.888;2022-12-20T05:49:20;4.90;;;4.13;;
3278;SDS011;1651;50.940;6.888;2022-12-20T05:51:46;5.85;;;4.40;;
3278;SDS011;1651;50.940;6.888;2022-12-20T05:54:12;5.53;;;3.97;;
3278;SDS011;1651;50.940;6.888;2022-12-20T05:56:39;5.10;;;3.80;;
3278;SDS011;1651;50.940;6.888;2022-12-20T05:59:05;4.78;;;4.10;;
3278;SDS011;1651;50.940;6.888;2022-12-20T06:01:31;7.27;;;4.50;;
3278;SDS011;1651;50.940;6.888;2022-12-20T06:03:58;8.53;;;3.70;;
3278;SDS011;1651;50.940;6.888;2022-12-20T06:06:24;6.72;;;3.97;;
3278;SDS011;1651;50.940;6.888;2022-12-20T06:08:50;5.90;;;3.83;;
3278;SDS011;1651;50.940;6.888;2022-12-20T06:11:17;5.20;;;4.00;;
3278;SDS011;1651;50.940;6.888;2022-12-20T06:13:44;6.55;;;4.30;;
3278;SDS011;1651;50.940;6.888;2022-12-20T06:16:10;5.90;;;3.88;;
3278;SDS011;1651;50.940;6.888;2022-12-20T06:18:36;5.50;;;3.80;;
3278;SDS011;1651;50.940;6.888;2022-12-20T06:21:02;5.50;;;3.70;;
3278;SDS011;1651;50.940;6.888;2022-12-20T06:23:28;8.17;;;3.80;;
3278;SDS011;1651;50.940;6.888;2022-12-20T06:25:54;6.30;;;4.10;;
3278;SDS011;1651;50.940;6.888;2022-12-20T06:28:20;9.63;;;4.33;;
3278;SDS011;1651;50.940;6.888;2022-12-20T06:30:52;5.70;;;4.17;;
3278;SDS011;1651;50.940;6.888;2022-12-20T06:33:19;4.15;;;3.75;;
3278;SDS011;1651;50.940;6.888;2022-12-20T06:35:45;4.07;;;3.67;;
3278;SDS011;1651;50.940;6.888;2022-12-20T06:38:11;7.55;;;4.18;;
3278;SDS011;1651;50.940;6.888;2022-12-20T06:40:37;5.37;;;4.30;;
3278;SDS011;1651;50.940;6.888;2022-12-20T06:43:03;4.13;;;3.55;;
3278;SDS011;1651;50.940;6.888;2022-12-20T06:45:29;5.30;;;2.37;;
3278;SDS011;1651;50.940;6.888;2022-12-20T06:47:55;5.13;;;3.77;;
3278;SDS011;1651;50.940;6.888;2022-12-20T06:50:22;6.78;;;4.03;;
3278;SDS011;1651;50.940;6.888;2022-12-20T06:52:48;8.60;;;4.88;;
3278;SDS011;1651;50.940;6.888;2022-12-20T06:55:14;6.83;;;4.50;;
3278;SDS011;1651;50.940;6.888;2022-12-20T06:57:40;7.07;;;3.90;;
3278;SDS011;1651;50.940;6.888;2022-12-20T07:00:07;4.40;;;3.33;;
3278;SDS011;1651;50.940;6.888;2022-12-20T07:02:34;6.60;;;4.30;;
3278;SDS011;1651;50.940;6.888;2022-12-20T07:05:00;6.63;;;4.57;;
3278;SDS011;1651;50.940;6.888;2022-12-20T07:07:26;4.97;;;3.40;;
3278;SDS011;1651;50.940;6.888;2022-12-20T07:09:52;4.57;;;3.60;;
3278;SDS011;1651;50.940;6.888;2022-12-20T07:12:18;8.33;;;4.67;;
3278;SDS011;1651;50.940;6.888;2022-12-20T07:14:44;7.17;;;4.60;;
3278;SDS011;1651;50.940;6.888;2022-12-20T07:17:10;5.00;;;4.10;;
3278;SDS011;1651;50.940;6.888;2022-12-20T07:19:36;6.13;;;3.80;;
3278;SDS011;1651;50.940;6.888;2022-12-20T07:22:02;5.25;;;3.55;;
3278;SDS011;1651;50.940;6.888;2022-12-20T07:24:29;8.67;;;5.03;;
3278;SDS011;1651;50.940;6.888;2022-12-20T07:26:55;5.07;;;3.80;;
3278;SDS011;1651;50.940;6.888;2022-12-20T07:29:21;5.90;;;4.47;;
3278;SDS011;1651;50.940;6.888;2022-12-20T07:31:47;6.10;;;4.20;;
3278;SDS011;1651;50.940;6.888;2022-12-20T07:34:13;6.40;;;4.40;;
3278;SDS011;1651;50.940;6.888;2022-12-20T07:36:39;5.13;;;3.73;;
3278;SDS011;1651;50.940;6.888;2022-12-20T07:39:05;4.67;;;3.80;;
3278;SDS011;1651;50.940;6.888;2022-12-20T07:41:31;6.70;;;4.80;;
3278;SDS011;1651;50.940;6.888;2022-12-20T07:43:57;7.23;;;4.77;;
3278;SDS011;1651;50.940;6.888;2022-12-20T07:46:23;5.83;;;4.33;;
3278;SDS011;1651;50.940;6.888;2022-12-20T07:48:49;6.33;;;5.27;;
3278;SDS011;1651;50.940;6.888;2022-12-20T07:51:16;6.90;;;4.90;;
3278;SDS011;1651;50.940;6.888;2022-12-20T07:53:47;5.78;;;4.70;;
3278;SDS011;1651;50.940;6.888;2022-12-20T07:56:15;6.72;;;5.32;;
3278;SDS011;1651;50.940;6.888;2022-12-20T07:58:41;10.05;;;4.95;;
3278;SDS011;1651;50.940;6.888;2022-12-20T08:01:08;8.38;;;4.82;;
3278;SDS011;1651;50.940;6.888;2022-12-20T08:04:09;7.25;;;5.22;;
3278;SDS011;1651;50.940;6.888;2022-12-20T08:06:27;6.15;;;4.80;;
3278;SDS011;1651;50.940;6.888;2022-12-20T08:08:54;5.13;;;4.63;;
3278;SDS011;1651;50.940;6.888;2022-12-20T08:11:22;5.95;;;5.30;;
3278;SDS011;1651;50.940;6.888;2022-12-20T08:13:49;7.18;;;5.30;;
3278;SDS011;1651;50.940;6.888;2022-12-20T08:16:15;5.13;;;4.28;;
3278;SDS011;1651;50.940;6.888;2022-12-20T08:18:41;8.03;;;4.43;;
3278;SDS011;1651;50.940;6.888;2022-12-20T08:21:07;5.05;;;4.60;;
3278;SDS011;1651;50.940;6.888;2022-12-20T08:23:34;7.57;;;4.60;;
3278;SDS011;1651;50.940;6.888;2022-12-20T08:26:00;5.82;;;4.45;;
3278;SDS011;1651;50.940;6.888;2022-12-20T08:28:27;6.75;;;5.53;;
3278;SDS011;1651;50.940;6.888;2022-12-20T08:30:58;6.63;;;5.93;;
3278;SDS011;1651;50.940;6.888;2022-12-20T08:33:25;6.85;;;4.30;;
3278;SDS011;1651;50.940;6.888;2022-12-20T08:35:58;5.70;;;4.43;;
3278;SDS011;1651;50.940;6.888;2022-12-20T08:38:25;6.17;;;5.27;;
3278;SDS011;1651;50.940;6.888;2022-12-20T08:40:52;8.23;;;3.75;;
3278;SDS011;1651;50.940;6.888;2022-12-20T08:43:18;4.35;;;3.70;;
3278;SDS011;1651;50.940;6.888;2022-12-20T08:45:44;8.50;;;4.20;;
3278;SDS011;1651;50.940;6.888;2022-12-20T08:48:10;9.23;;;3.57;;
3278;SDS011;1651;50.940;6.888;2022-12-20T08:50:36;6.83;;;4.60;;
3278;SDS011;1651;50.940;6.888;2022-12-20T08:53:02;6.30;;;4.60;;
3278;SDS011;1651;50.940;6.888;2022-12-20T08:55:28;4.23;;;3.43;;
3278;SDS011;1651;50.940;6.888;2022-12-20T08:57:54;4.47;;;3.37;;
3278;SDS011;1651;50.940;6.888;2022-12-20T09:00:20;6.67;;;3.97;;
3278;SDS011;1651;50.940;6.888;2022-12-20T09:02:46;4.97;;;3.70;;
3278;SDS011;1651;50.940;6.888;2022-12-20T09:05:12;3.40;;;3.10;;
3278;SDS011;1651;50.940;6.888;2022-12-20T09:07:38;6.40;;;3.83;;
3278;SDS011;1651;50.940;6.888;2022-12-20T09:10:05;6.40;;;4.07;;
3278;SDS011;1651;50.940;6.888;2022-12-20T09:12:35;6.22;;;4.05;;
3278;SDS011;1651;50.940;6.888;2022-12-20T09:15:01;5.53;;;3.63;;
3278;SDS011;1651;50.940;6.888;2022-12-20T09:17:27;5.87;;;3.83;;
3278;SDS011;1651;50.940;6.888;2022-12-20T09:19:54;5.05;;;3.90;;
3278;SDS011;1651;50.940;6.888;2022-12-20T09:22:23;10.03;;;4.70;;
3278;SDS011;1651;50.940;6.888;2022-12-20T09:24:50;4.30;;;3.87;;
3278;SDS011;1651;50.940;6.888;2022-12-20T09:27:16;6.30;;;4.15;;
3278;SDS011;1651;50.940;6.888;2022-12-20T09:29:42;4.27;;;3.87;;
3278;SDS011;1651;50.940;6.888;2022-12-20T09:32:09;5.37;;;4.00;;
3278;SDS011;1651;50.940;6.888;2022-12-20T09:34:37;4.78;;;3.80;;
3278;SDS011;1651;50.940;6.888;2022-12-20T09:37:03;3.47;;;2.90;;
3278;SDS011;1651;50.940;6.888;2022-12-20T09:39:30;5.10;;;3.90;;
3278;SDS011;1651;50.940;6.888;2022-12-20T09:41:57;5.63;;;3.87;;
3278;SDS011;1651;50.940;6.888;2022-12-20T09:46:56;5.37;;;3.80;;
3278;SDS011;1651;50.940;6.888;2022-12-20T09:49:24;4.17;;;3.20;;
3278;SDS011;1651;50.940;6.888;2022-12-20T09:56:55;4.80;;;3.87;;
3278;SDS011;1651;50.940;6.888;2022-12-20T09:59:22;7.17;;;3.37;;
3278;SDS011;1651;50.940;6.888;2022-12-20T10:01:49;5.40;;;4.63;;
3278;SDS011;1651;50.940;6.888;2022-12-20T10:12:00;4.60;;;2.93;;
3278;SDS011;1651;50.940;6.888;2022-12-20T10:17:03;2.97;;;2.70;;
3278;SDS011;1651;50.940;6.888;2022-12-20T10:22:09;3.63;;;2.75;;
3278;SDS011;1651;50.940;6.888;2022-12-20T10:24:36;5.05;;;2.63;;
3278;SDS011;1651;50.940;6.888;2022-12-20T10:27:17;4.47;;;2.72;;
3278;SDS011;1651;50.940;6.888;2022-12-20T10:29:45;3.00;;;2.25;;
3278;SDS011;1651;50.940;6.888;2022-12-20T10:32:12;4.65;;;2.92;;
3278;SDS011;1651;50.940;6.888;2022-12-20T10:34:40;4.50;;;2.00;;
3278;SDS011;1651;50.940;6.888;2022-12-20T10:37:13;3.90;;;1.73;;
3278;SDS011;1651;50.940;6.888;2022-12-20T10:39:45;2.27;;;2.07;;
3278;SDS011;1651;50.940;6.888;2022-12-20T10:42:25;7.17;;;3.10;;
3278;SDS011;1651;50.940;6.888;2022-12-20T10:44:52;5.53;;;2.17;;
3278;SDS011;1651;50.940;6.888;2022-12-20T10:47:33;3.43;;;3.13;;
3278;SDS011;1651;50.940;6.888;2022-12-20T10:50:06;2.93;;;2.67;;
3278;SDS011;1651;50.940;6.888;2022-12-20T10:52:33;5.03;;;1.93;;
3278;SDS011;1651;50.940;6.888;2022-12-20T10:54:59;2.17;;;1.93;;
3278;SDS011;1651;50.940;6.888;2022-12-20T10:57:26;4.57;;;1.80;;
3278;SDS011;1651;50.940;6.888;2022-12-20T11:05:00;4.33;;;2.93;;
3278;SDS011;1651;50.940;6.888;2022-12-20T11:07:28;4.80;;;3.00;;
3278;SDS011;1651;50.940;6.888;2022-12-20T11:09:55;4.57;;;3.43;;
3278;SDS011;1651;50.940;6.888;2022-12-20T11:12:21;5.47;;;3.60;;
3278;SDS011;1651;50.940;6.888;2022-12-20T11:14:48;4.70;;;3.20;;
3278;SDS011;1651;50.940;6.888;2022-12-20T11:22:41;6.20;;;3.40;;
3278;SDS011;1651;50.940;6.888;2022-12-20T11:30:14;6.13;;;3.77;;
3278;SDS011;1651;50.940;6.888;2022-12-20T11:32:47;7.30;;;3.90;;
3278;SDS011;1651;50.940;6.888;2022-12-20T11:37:53;5.90;;;4.00;;
3278;SDS011;1651;50.940;6.888;2022-12-20T11:40:25;6.93;;;4.27;;
3278;SDS011;1651;50.940;6.888;2022-12-20T11:42:59;7.03;;;3.70;;
3278;SDS011;1651;50.940;6.888;2022-12-20T11:48:08;4.20;;;2.83;;
3278;SDS011;1651;50.940;6.888;2022-12-20T11:53:21;5.13;;;3.83;;
3278;SDS011;1651;50.940;6.888;2022-12-20T11:55:48;6.80;;;3.90;;
3278;SDS011;1651;50.940;6.888;2022-12-20T12:00:45;8.93;;;3.37;;
3278;SDS011;1651;50.940;6.888;2022-12-20T12:03:15;8.67;;;3.67;;
3278;SDS011;1651;50.940;6.888;2022-12-20T12:05:44;4.50;;;2.90;;
3278;SDS011;1651;50.940;6.888;2022-12-20T12:08:22;5.10;;;2.93;;
3278;SDS011;1651;50.940;6.888;2022-12-20T12:10:55;5.60;;;3.83;;
3278;SDS011;1651;50.940;6.888;2022-12-20T12:13:25;3.67;;;2.57;;
3278;SDS011;1651;50.940;6.888;2022-12-20T12:15:57;5.00;;;2.90;;
3278;SDS011;1651;50.940;6.888;2022-12-20T12:18:30;5.20;;;2.87;;
3278;SDS011;1651;50.940;6.888;2022-12-20T12:26:11;3.30;;;1.80;;
3278;SDS011;1651;50.940;6.888;2022-12-20T12:28:38;4.73;;;2.30;;
3278;SDS011;1651;50.940;6.888;2022-12-20T12:31:11;3.03;;;2.47;;
3278;SDS011;1651;50.940;6.888;2022-12-20T12:33:43;2.73;;;2.13;;
3278;SDS011;1651;50.940;6.888;2022-12-20T12:36:25;5.03;;;2.40;;
3278;SDS011;1651;50.940;6.888;2022-12-20T12:41:29;5.90;;;2.30;;
3278;SDS011;1651;50.940;6.888;2022-12-20T12:46:46;2.83;;;2.17;;
3278;SDS011;1651;50.940;6.888;2022-12-20T12:49:20;4.53;;;2.43;;
3278;SDS011;1651;50.940;6.888;2022-12-20T12:51:51;3.50;;;2.60;;
3278;SDS011;1651;50.940;6.888;2022-12-20T12:54:20;5.40;;;2.70;;
3278;SDS011;1651;50.940;6.888;2022-12-20T12:56:48;4.40;;;3.10;;
3278;SDS011;1651;50.940;6.888;2022-12-20T12:59:19;5.80;;;3.00;;
3278;SDS011;1651;50.940;6.888;2022-12-20T13:01:47;3.00;;;2.60;;
3278;SDS011;1651;50.940;6.888;2022-12-20T13:11:54;5.40;;;3.20;;
3278;SDS011;1651;50.940;6.888;2022-12-20T13:16:50;7.80;;;3.80;;
3278;SDS011;1651;50.940;6.888;2022-12-20T13:19:18;4.37;;;3.47;;
3278;SDS011;1651;50.940;6.888;2022-12-20T13:24:27;7.00;;;3.87;;
3278;SDS011;1651;50.940;6.888;2022-12-20T13:27:00;10.40;;;5.80;;
3278;SDS011;1651;50.940;6.888;2022-12-20T13:29:27;25.63;;;5.57;;
3278;SDS011;1651;50.940;6.888;2022-12-20T13:31:57;7.17;;;4.70;;
3278;SDS011;1651;50.940;6.888;2022-12-20T13:35:10;7.20;;;4.10;;
3278;SDS011;1651;50.940;6.888;2022-12-20T13:37:24;15.10;;;4.10;;
3278;SDS011;1651;50.940;6.888;2022-12-20T13:39:51;5.10;;;3.80;;
3278;SDS011;1651;50.940;6.888;2022-12-20T13:42:26;9.43;;;4.43;;
3278;SDS011;1651;50.940;6.888;2022-12-20T13:44:55;5.63;;;4.20;;
3278;SDS011;1651;50.940;6.888;2022-12-20T13:49:51;12.37;;;5.00;;
3278;SDS011;1651;50.940;6.888;2022-12-20T13:52:37;8.43;;;4.73;;
3278;SDS011;1651;50.940;6.888;2022-12-20T13:55:15;13.43;;;6.60;;
3278;SDS011;1651;50.940;6.888;2022-12-20T13:57:43;15.07;;;7.70;;
3278;SDS011;1651;50.940;6.888;2022-12-20T14:00:17;16.73;;;6.90;;
3278;SDS011;1651;50.940;6.888;2022-12-20T14:02:43;13.17;;;5.13;;
3278;SDS011;1651;50.940;6.888;2022-12-20T14:05:20;6.33;;;3.90;;
3278;SDS011;1651;50.940;6.888;2022-12-20T14:07:50;9.43;;;3.87;;
3278;SDS011;1651;50.940;6.888;2022-12-20T14:10:18;10.53;;;4.50;;
3278;SDS011;1651;50.940;6.888;2022-12-20T14:12:45;8.63;;;4.20;;
3278;SDS011;1651;50.940;6.888;2022-12-20T14:17:46;10.90;;;4.80;;
3278;SDS011;1651;50.940;6.888;2022-12-20T14:23:02;5.90;;;4.77;;
3278;SDS011;1651;50.940;6.888;2022-12-20T14:25:32;7.27;;;4.90;;
3278;SDS011;1651;50.940;6.888;2022-12-20T14:28:00;5.43;;;4.20;;
3278;SDS011;1651;50.940;6.888;2022-12-20T14:30:40;6.03;;;4.77;;
3278;SDS011;1651;50.940;6.888;2022-12-20T14:33:40;6.10;;;4.53;;
3278;SDS011;1651;50.940;6.888;2022-12-20T14:36:06;7.13;;;4.50;;
3278;SDS011;1651;50.940;6.888;2022-12-20T14:38:34;6.60;;;4.50;;
3278;SDS011;1651;50.940;6.888;2022-12-20T14:41:00;13.80;;;5.07;;
3278;SDS011;1651;50.940;6.888;2022-12-20T14:43:31;7.07;;;4.30;;
3278;SDS011;1651;50.940;6.888;2022-12-20T14:46:07;6.57;;;4.20;;
3278;SDS011;1651;50.940;6.888;2022-12-20T14:48:33;9.07;;;4.30;;
3278;SDS011;1651;50.940;6.888;2022-12-20T14:51:03;7.70;;;4.53;;
3278;SDS011;1651;50.940;6.888;2022-12-20T14:53:29;7.20;;;4.50;;
3278;SDS011;1651;50.940;6.888;2022-12-20T14:55:55;5.33;;;4.30;;
3278;SDS011;1651;50.940;6.888;2022-12-20T14:58:31;6.30;;;3.60;;
3278;SDS011;1651;50.940;6.888;2022-12-20T15:01:19;6.47;;;4.50;;
3278;SDS011;1651;50.940;6.888;2022-12-20T15:03:54;7.07;;;4.27;;
3278;SDS011;1651;50.940;6.888;2022-12-20T15:06:31;7.63;;;4.40;;
3278;SDS011;1651;50.940;6.888;2022-12-20T15:08:58;6.90;;;4.53;;
3278;SDS011;1651;50.940;6.888;2022-12-20T15:11:24;5.77;;;4.23;;
3278;SDS011;1651;50.940;6.888;2022-12-20T15:13:51;5.20;;;3.80;;
3278;SDS011;1651;50.940;6.888;2022-12-20T15:18:47;4.50;;;3.63;;
3278;SDS011;1651;50.940;6.888;2022-12-20T15:21:27;5.15;;;3.05;;
3278;SDS011;1651;50.940;6.888;2022-12-20T15:23:54;5.67;;;3.40;;
3278;SDS011;1651;50.940;6.888;2022-12-20T15:26:23;6.15;;;3.50;;
3278;SDS011;1651;50.940;6.888;2022-12-20T15:28:49;5.80;;;4.27;;
3278;SDS011;1651;50.940;6.888;2022-12-20T15:31:16;5.23;;;2.97;;
3278;SDS011;1651;50.940;6.888;2022-12-20T15:33:43;5.97;;;3.53;;
3278;SDS011;1651;50.940;6.888;2022-12-20T15:36:16;5.47;;;3.63;;
3278;SDS011;1651;50.940;6.888;2022-12-20T15:38:42;6.23;;;3.77;;
3278;SDS011;1651;50.940;6.888;2022-12-20T15:41:12;5.80;;;3.27;;
3278;SDS011;1651;50.940;6.888;2022-12-20T15:43:39;9.00;;;4.27;;
3278;SDS011;1651;50.940;6.888;2022-12-20T15:46:10;5.85;;;3.80;;
3278;SDS011;1651;50.940;6.888;2022-12-20T15:48:38;12.43;;;3.90;;
3278;SDS011;1651;50.940;6.888;2022-12-20T15:51:27;3.58;;;3.28;;
3278;SDS011;1651;50.940;6.888;2022-12-20T15:53:52;5.85;;;3.53;;
3278;SDS011;1651;50.940;6.888;2022-12-20T15:56:21;3.58;;;3.00;;
3278;SDS011;1651;50.940;6.888;2022-12-20T15:58:48;6.03;;;2.80;;
3278;SDS011;1651;50.940;6.888;2022-12-20T16:01:37;5.50;;;3.50;;
3278;SDS011;1651;50.940;6.888;2022-12-20T16:04:04;28.07;;;14.13;;
3278;SDS011;1651;50.940;6.888;2022-12-20T16:06:31;8.00;;;5.10;;
3278;SDS011;1651;50.940;6.888;2022-12-20T16:08:59;10.67;;;7.23;;
3278;SDS011;1651;50.940;6.888;2022-12-20T16:11:26;8.47;;;7.57;;
3278;SDS011;1651;50.940;6.888;2022-12-20T16:13:56;5.23;;;4.73;;
3278;SDS011;1651;50.940;6.888;2022-12-20T16:16:29;10.88;;;4.55;;
3278;SDS011;1651;50.940;6.888;2022-12-20T16:18:56;6.53;;;5.10;;
3278;SDS011;1651;50.940;6.888;2022-12-20T16:21:24;7.10;;;5.43;;
3278;SDS011;1651;50.940;6.888;2022-12-20T16:23:51;9.82;;;5.70;;
3278;SDS011;1651;50.940;6.888;2022-12-20T16:26:18;8.40;;;4.50;;
3278;SDS011;1651;50.940;6.888;2022-12-20T16:28:45;5.67;;;3.90;;
3278;SDS011;1651;50.940;6.888;2022-12-20T16:31:25;10.90;;;4.93;;
3278;SDS011;1651;50.940;6.888;2022-12-20T16:33:52;7.40;;;5.10;;
3278;SDS011;1651;50.940;6.888;2022-12-20T16:36:19;6.63;;;5.20;;
3278;SDS011;1651;50.940;6.888;2022-12-20T16:38:45;8.70;;;4.87;;
3278;SDS011;1651;50.940;6.888;2022-12-20T16:41:12;6.50;;;4.33;;
3278;SDS011;1651;50.940;6.888;2022-12-20T16:43:40;7.47;;;5.10;;
3278;SDS011;1651;50.940;6.888;2022-12-20T16:46:10;7.30;;;5.57;;
3278;SDS011;1651;50.940;6.888;2022-12-20T16:48:37;10.55;;;5.05;;
3278;SDS011;1651;50.940;6.888;2022-12-20T16:51:28;7.90;;;5.50;;
3278;SDS011;1651;50.940;6.888;2022-12-20T16:53:53;7.50;;;4.93;;
3278;SDS011;1651;50.940;6.888;2022-12-20T16:56:19;8.67;;;5.70;;
3278;SDS011;1651;50.940;6.888;2022-12-20T16:58:46;9.30;;;6.83;;
3278;SDS011;1651;50.940;6.888;2022-12-20T17:01:22;9.70;;;6.23;;
3278;SDS011;1651;50.940;6.888;2022-12-20T17:03:48;10.07;;;5.73;;
3278;SDS011;1651;50.940;6.888;2022-12-20T17:06:16;10.27;;;7.33;;